Main page
METAR-TAF:

METAR-TAF

Airports :

Emmen, Switzerland

Militärflugplatz Emmen

latitude: 47-05-32N, longitude: 8-18-16E, elevation: 426 m

Current weather observation

The report was made 37 minutes ago, at 20:50 UTC
Wind 2 kt from variable directions
Temperature 3°C
Humidity 93%
Pressure 1029 hPa
Visibility: 7000 m
Few clouds at a height of 19000 ft

METAR: LSME 232050Z AUTO VRB02KT 7000NDV FEW190 03/02 Q1029 RMK

Time: 22:27 (21:27 UTC)


TAF: missing

Weather observations and forecasts of more than 4000 airports (METAR and TAF reports).

The available stations are represented by yellow and red dots on the map.

Hover mouse over dot to see the name of the station.

Then click to see weather observations and forecasts.

To change the map : click on the green buttons with a black cross to zoom in, on the green button with a dash to zoom out, or on the green arrows for adjacent maps.


METAR-TAF: